Time;durP1;ratioP1;P1;durP2;ratioP2;P2;SDS_P1;SDS_P2;PMS_P1;PMS_P2;Temp;Humidity;BMP_temperature;BMP_pressure;BME280_temperature;BME280_humidity;BME280_pressure;Samples;Min_cycle;Max_cycle;Signal;HPM_P1;HPM_P2
2022/12/22 03:25:54;;;;;;;0.10;0.10;;;;;;;6.96;100.00;95341.06;4946684;28;20073;-73
2022/12/22 03:28:40;;;;;;;0.20;0.20;;;;;;;6.93;100.00;95330.13;4946288;28;20039;-75
2022/12/22 03:31:26;;;;;;;0.10;0.10;;;;;;;6.95;100.00;95336.00;4944879;28;20478;-73
2022/12/22 03:34:12;;;;;;;0.10;0.10;;;;;;;6.94;100.00;95323.75;4945408;28;20568;-73
2022/12/22 03:36:58;;;;;;;0.20;0.20;;;;;;;6.93;100.00;95322.97;4943527;28;20458;-71
2022/12/22 03:39:44;;;;;;;0.10;0.10;;;;;;;6.91;100.00;95318.94;4945519;28;20042;-72
2022/12/22 03:48:38;;;;;;;0.10;0.10;;;;;;;7.07;100.00;95309.22;4957900;28;20042;-72
2022/12/22 03:51:24;;;;;;;0.10;0.10;;;;;;;7.14;100.00;95299.16;4943175;28;20633;-72
2022/12/22 03:54:12;;;;;;;0.10;0.10;;;;;;;7.18;100.00;95302.94;4942311;28;20189;-72
2022/12/22 03:56:58;;;;;;;0.10;0.10;;;;;;;7.22;100.00;95296.03;4955471;28;20051;-73
2022/12/22 03:59:44;;;;;;;0.10;0.10;;;;;;;7.27;100.00;95288.09;4946592;28;20389;-73
2022/12/22 04:02:30;;;;;;;0.10;0.10;;;;;;;7.29;100.00;95291.31;4964526;28;20046;-70
2022/12/22 04:05:16;;;;;;;0.10;0.10;;;;;;;7.32;100.00;95280.16;4964869;28;20038;-71
2022/12/22 04:08:02;;;;;;;0.10;0.10;;;;;;;7.38;100.00;95281.78;4975925;28;20116;-72
2022/12/22 04:13:52;;;;;;;0.17;0.17;;;;;;;7.46;100.00;95265.31;4965064;28;20334;-74
2022/12/22 04:16:38;;;;;;;0.10;0.10;;;;;;;7.53;100.00;95262.44;4962285;28;20397;-74
2022/12/22 04:19:24;;;;;;;0.20;0.20;;;;;;;7.56;100.00;95263.81;4964095;28;20035;-73
2022/12/22 04:22:09;;;;;;;0.10;0.10;;;;;;;7.53;100.00;95249.13;4975487;28;20042;-73
2022/12/22 04:24:55;;;;;;;0.20;0.20;;;;;;;7.62;100.00;95263.56;4962535;28;20046;-75
2022/12/22 04:27:41;;;;;;;0.15;0.15;;;;;;;7.62;100.00;95257.44;4963960;28;20042;-71
2022/12/22 04:30:27;;;;;;;0.10;0.10;;;;;;;7.64;100.00;95247.34;4959923;28;20238;-72
2022/12/22 04:33:13;;;;;;;0.20;0.20;;;;;;;7.70;100.00;95260.41;4942927;28;20248;-71
2022/12/22 04:35:59;;;;;;;0.10;0.10;;;;;;;7.73;100.00;95262.56;4943847;28;20142;-74
2022/12/22 04:38:45;;;;;;;0.10;0.10;;;;;;;7.77;100.00;95249.50;4944303;28;20043;-70
2022/12/22 04:41:30;;;;;;;0.10;0.10;;;;;;;7.83;100.00;95254.59;4943174;28;20522;-71
2022/12/22 04:44:16;;;;;;;0.17;0.17;;;;;;;7.86;100.00;95257.81;4945846;28;20081;-71
2022/12/22 04:47:02;;;;;;;0.10;0.10;;;;;;;7.96;100.00;95240.00;4942494;28;20114;-72
2022/12/22 04:49:48;;;;;;;0.20;0.20;;;;;;;7.95;100.00;95254.41;4945670;28;20046;-74
2022/12/22 04:52:34;;;;;;;0.10;0.10;;;;;;;7.97;100.00;95244.28;4944640;28;20074;-72
2022/12/22 04:55:20;;;;;;;0.10;0.10;;;;;;;7.99;100.00;95218.16;4943531;28;20043;-75
2022/12/22 04:58:06;;;;;;;0.10;0.10;;;;;;;7.92;100.00;95225.59;4943664;28;20034;-74
2022/12/22 05:00:52;;;;;;;0.10;0.10;;;;;;;8.00;100.00;95225.09;4945838;28;20383;-74
2022/12/22 05:03:37;;;;;;;0.20;0.20;;;;;;;7.96;100.00;95226.69;4944570;28;20074;-74
2022/12/22 05:06:24;;;;;;;0.20;0.20;;;;;;;7.98;100.00;95216.56;4942170;28;20389;-74
2022/12/22 05:09:10;;;;;;;0.20;0.20;;;;;;;7.97;100.00;95212.31;4944674;28;20051;-74
2022/12/22 05:11:56;;;;;;;0.10;0.10;;;;;;;8.00;100.00;95216.31;4946066;28;20043;-74
2022/12/22 05:14:42;;;;;;;0.10;0.10;;;;;;;7.94;100.00;95204.84;4946658;28;20345;-72
2022/12/22 05:17:28;;;;;;;0.10;0.10;;;;;;;8.00;100.00;95214.44;4943076;28;20838;-75
2022/12/22 05:20:14;;;;;;;0.20;0.20;;;;;;;7.99;100.00;95196.84;4943679;28;20248;-73
2022/12/22 05:22:59;;;;;;;0.20;0.20;;;;;;;7.95;100.00;95201.13;4944955;28;20047;-72
2022/12/22 05:25:45;;;;;;;0.20;0.20;;;;;;;7.96;100.00;95212.59;4946573;28;20527;-72
2022/12/22 05:28:31;;;;;;;0.10;0.10;;;;;;;7.98;100.00;95205.91;4944887;28;20085;-72
2022/12/22 05:31:22;;;;;;;0.20;0.20;;;;;;;7.97;100.00;95200.84;4952045;28;20476;-73
2022/12/22 05:34:08;;;;;;;0.17;0.17;;;;;;;7.97;100.00;95201.66;4964141;28;20450;-75
2022/12/22 05:36:54;;;;;;;0.10;0.10;;;;;;;7.91;100.00;95183.25;4962954;28;20050;-74
2022/12/22 05:39:40;;;;;;;0.20;0.20;;;;;;;7.89;100.00;95196.84;4968329;28;20139;-71
2022/12/22 05:42:35;;;;;;;0.10;0.10;;;;;;;7.87;100.00;95190.97;4968177;28;20039;-73
2022/12/22 05:45:22;;;;;;;0.20;0.20;;;;;;;7.83;100.00;95185.34;4980849;28;20050;-74
2022/12/22 05:48:08;;;;;;;0.10;0.10;;;;;;;7.87;100.00;95182.19;4966598;28;20259;-73
2022/12/22 05:50:53;;;;;;;0.20;0.20;;;;;;;7.84;100.00;95159.53;4968311;28;20042;-75
2022/12/22 05:53:40;;;;;;;0.10;0.10;;;;;;;7.80;100.00;95169.91;4980232;28;20054;-75
2022/12/22 05:56:26;;;;;;;0.15;0.15;;;;;;;7.80;100.00;95155.81;4967377;28;20034;-71
2022/12/22 05:59:12;;;;;;;0.13;0.13;;;;;;;7.87;100.00;95164.34;4968029;28;20487;-74
2022/12/22 06:01:58;;;;;;;0.10;0.10;;;;;;;7.95;100.00;95184.34;4952205;28;20047;-72
2022/12/22 06:04:44;;;;;;;0.10;0.10;;;;;;;8.03;100.00;95171.31;4949467;28;20377;-73
2022/12/22 06:07:29;;;;;;;0.20;0.20;;;;;;;8.03;100.00;95167.84;4943712;28;20089;-75
2022/12/22 06:10:15;;;;;;;0.10;0.10;;;;;;;8.06;100.00;95167.31;4948823;28;20253;-73
2022/12/22 06:13:01;;;;;;;0.10;0.10;;;;;;;7.98;100.00;95179.28;4947097;28;20498;-72
2022/12/22 06:15:48;;;;;;;0.10;0.10;;;;;;;7.97;100.00;95169.69;4947553;28;20078;-73
2022/12/22 06:18:33;;;;;;;0.20;0.20;;;;;;;8.01;100.00;95167.28;4947483;28;20054;-72
2022/12/22 06:21:19;;;;;;;0.10;0.10;;;;;;;8.05;100.00;95160.38;4948049;28;20648;-74
2022/12/22 06:24:05;;;;;;;0.20;0.20;;;;;;;7.98;100.00;95155.31;4948750;28;20392;-72
2022/12/22 06:26:51;;;;;;;0.20;0.20;;;;;;;7.99;100.00;95146.25;4948017;28;20046;-75
2022/12/22 06:29:37;;;;;;;0.10;0.10;;;;;;;8.05;100.00;95137.19;4947705;28;20080;-73
2022/12/22 06:32:25;;;;;;;0.10;0.10;;;;;;;8.06;100.00;95152.13;4949807;28;20043;-73
2022/12/22 06:35:11;;;;;;;0.10;0.10;;;;;;;8.08;100.00;95163.31;4959995;28;20062;-72
2022/12/22 06:37:57;;;;;;;0.20;0.20;;;;;;;8.10;100.00;95128.44;4958938;28;20058;-74
2022/12/22 06:40:43;;;;;;;0.10;0.10;;;;;;;8.10;100.00;95134.56;4949283;28;20038;-73
2022/12/22 06:43:29;;;;;;;0.10;0.10;;;;;;;8.08;100.00;95115.34;4947319;28;20071;-74
2022/12/22 06:46:14;;;;;;;0.17;0.17;;;;;;;8.15;100.00;95128.41;4948503;28;20140;-74
2022/12/22 06:49:00;;;;;;;0.20;0.20;;;;;;;8.13;100.00;95122.56;4946700;28;20126;-74
2022/12/22 06:51:49;;;;;;;0.10;0.10;;;;;;;8.16;100.00;95147.88;4948814;28;20260;-73
2022/12/22 06:54:35;;;;;;;0.10;0.10;;;;;;;8.16;100.00;95140.66;4947128;28;20027;-71
2022/12/22 06:57:21;;;;;;;0.10;0.10;;;;;;;8.09;100.00;95153.44;4946282;28;20039;-73
2022/12/22 07:00:07;;;;;;;0.10;0.10;;;;;;;8.03;100.00;95160.66;4948296;28;20042;-75
2022/12/22 07:02:53;;;;;;;0.10;0.10;;;;;;;7.98;100.00;95183.81;4949238;28;20042;-74
2022/12/22 07:05:39;;;;;;;0.13;0.13;;;;;;;7.99;100.00;95180.88;4961875;28;20395;-75
2022/12/22 07:08:25;;;;;;;0.17;0.17;;;;;;;7.97;100.00;95191.00;4948025;28;20411;-74
2022/12/22 07:11:11;;;;;;;0.10;0.10;;;;;;;7.94;100.00;95175.56;4949423;28;20062;-73
2022/12/22 07:13:57;;;;;;;0.10;0.10;;;;;;;7.92;100.00;95182.97;4946013;28;20034;-74
2022/12/22 07:16:42;;;;;;;0.10;0.10;;;;;;;7.90;100.00;95182.47;4945507;28;20057;-75
2022/12/22 07:19:29;;;;;;;0.10;0.10;;;;;;;7.91;100.00;95176.06;4947808;28;20797;-72
2022/12/22 07:22:15;;;;;;;0.10;0.10;;;;;;;7.89;100.00;95183.53;4945730;28;20338;-72
2022/12/22 07:25:00;;;;;;;0.10;0.10;;;;;;;7.89;100.00;95182.72;4947448;28;20150;-75
2022/12/22 07:27:46;;;;;;;0.10;0.10;;;;;;;7.80;100.00;95172.56;4947787;28;20093;-74
2022/12/22 07:30:34;;;;;;;0.10;0.10;;;;;;;7.85;100.00;95178.97;4950591;28;20502;-72
2022/12/22 07:33:20;;;;;;;0.13;0.13;;;;;;;7.83;100.00;95195.22;4966223;28;20542;-74
2022/12/22 07:36:15;;;;;;;0.20;0.20;;;;;;;7.75;100.00;95190.41;4966155;28;20196;-73
2022/12/22 07:39:01;;;;;;;0.20;0.20;;;;;;;7.76;100.00;95187.47;4966802;28;20319;-72
2022/12/22 07:44:51;;;;;;;0.10;0.10;;;;;;;7.62;100.00;95183.69;4968272;28;20042;-74
2022/12/22 07:47:37;;;;;;;0.20;0.20;;;;;;;7.68;100.00;95182.63;4967175;28;20042;-71
2022/12/22 07:50:31;;;;;;;0.10;0.10;;;;;;;7.65;100.00;95198.34;4968829;28;20038;-74
2022/12/22 07:53:17;;;;;;;0.20;0.20;;;;;;;7.65;100.00;95190.38;4969033;28;20398;-71
2022/12/22 07:56:04;;;;;;;0.10;0.10;;;;;;;7.59;100.00;95215.34;4965629;28;20043;-74
2022/12/22 07:58:50;;;;;;;0.20;0.20;;;;;;;7.58;100.00;95192.47;4967115;28;20046;-75
2022/12/22 08:01:36;;;;;;;0.10;0.10;;;;;;;7.63;100.00;95205.81;4951673;28;20053;-71
2022/12/22 08:04:22;;;;;;;0.10;0.10;;;;;;;7.59;100.00;95210.03;4948229;28;20650;-73
2022/12/22 08:07:08;;;;;;;0.10;0.10;;;;;;;7.60;100.00;95222.28;4945263;28;20054;-70
2022/12/22 08:09:54;;;;;;;0.10;0.10;;;;;;;7.59;100.00;95212.69;4947314;28;20034;-73
2022/12/22 08:12:40;;;;;;;0.20;0.20;;;;;;;7.53;100.00;95228.63;4946470;28;20134;-73
2022/12/22 08:15:26;;;;;;;0.20;0.20;;;;;;;7.51;100.00;95236.09;4946070;28;20038;-73
2022/12/22 08:18:12;;;;;;;0.20;0.20;;;;;;;7.53;100.00;95236.63;4947548;28;20039;-74
2022/12/22 08:20:58;;;;;;;0.20;0.20;;;;;;;7.53;100.00;95243.81;4946131;28;20035;-70
2022/12/22 08:23:44;;;;;;;0.10;0.10;;;;;;;7.60;100.00;95248.91;4959241;28;20198;-72
2022/12/22 08:26:35;;;;;;;0.10;0.10;;;;;;;7.67;100.00;95244.16;4947592;28;20047;-73
2022/12/22 08:29:44;;;;;;;0.20;0.20;;;;;;;7.69;100.00;95250.00;4947516;28;20034;-73
2022/12/22 08:32:30;;;;;;;0.10;0.10;;;;;;;7.74;100.00;95242.06;4965483;28;20419;-74
2022/12/22 08:35:16;;;;;;;0.10;0.10;;;;;;;7.73;100.00;95249.25;4964743;28;20227;-73
2022/12/22 08:38:04;;;;;;;0.15;0.15;;;;;;;7.72;100.00;95252.16;4966444;28;20046;-73
2022/12/22 08:40:50;;;;;;;0.20;0.20;;;;;;;7.64;100.00;95247.34;4967439;28;20035;-74
2022/12/22 08:43:36;;;;;;;0.20;0.20;;;;;;;7.71;100.00;95259.34;4967058;28;20038;-73
2022/12/22 08:46:21;;;;;;;0.20;0.20;;;;;;;7.75;100.00;95262.28;4966468;28;20119;-73
2022/12/22 08:49:07;;;;;;;0.20;0.20;;;;;;;7.76;100.00;95272.69;4968200;28;20411;-75
2022/12/22 08:51:53;;;;;;;0.20;0.20;;;;;;;7.65;100.00;95278.22;4980053;28;20149;-75
2022/12/22 08:54:40;;;;;;;0.10;0.10;;;;;;;7.67;100.00;95273.44;4964952;28;20042;-73
2022/12/22 08:57:25;;;;;;;0.10;0.10;;;;;;;7.66;100.00;95269.97;4966482;28;20758;-75
2022/12/22 09:00:12;;;;;;;0.10;0.10;;;;;;;7.72;100.00;95273.47;4964543;28;20408;-75
2022/12/22 09:02:58;;;;;;;0.10;0.10;;;;;;;7.63;100.00;95277.69;4946526;28;20043;-74
2022/12/22 09:05:43;;;;;;;0.10;0.10;;;;;;;7.64;100.00;95289.94;4947412;28;20552;-72
2022/12/22 09:08:30;;;;;;;0.20;0.20;;;;;;;7.70;100.00;95294.22;4946698;28;20153;-74
2022/12/22 09:11:16;;;;;;;0.22;0.22;;;;;;;7.82;100.00;95292.16;4948905;28;20043;-74
2022/12/22 09:14:03;;;;;;;0.15;0.15;;;;;;;7.88;100.00;95308.97;4949112;28;20410;-73
2022/12/22 09:16:49;;;;;;;0.15;0.15;;;;;;;7.83;100.00;95301.75;4952149;28;20047;-75
2022/12/22 09:19:35;;;;;;;0.20;0.20;;;;;;;7.88;100.00;95315.09;4949108;28;20035;-74
2022/12/22 09:22:21;;;;;;;0.10;0.10;;;;;;;7.85;100.00;95315.59;4964543;28;20263;-75
2022/12/22 09:25:07;;;;;;;0.20;0.20;;;;;;;7.85;100.00;95315.59;4951229;28;20145;-73
2022/12/22 09:27:53;;;;;;;0.15;0.15;;;;;;;7.90;100.00;95331.63;4950094;28;20515;-75
2022/12/22 09:30:39;;;;;;;0.20;0.20;;;;;;;7.95;100.00;95336.97;4947901;28;20697;-74
2022/12/22 09:33:25;;;;;;;0.15;0.15;;;;;;;7.97;100.00;95350.03;4949564;28;20067;-75
2022/12/22 09:36:14;;;;;;;0.10;0.10;;;;;;;7.93;100.00;95338.28;4916540;28;20354;-73
2022/12/22 09:39:08;;;;;;;0.20;0.20;;;;;;;7.87;100.00;95345.47;4959043;28;20542;-71
2022/12/22 09:41:56;;;;;;;0.20;0.20;;;;;;;7.91;100.00;95356.38;4952172;28;20055;-75
2022/12/22 09:44:49;;;;;;;0.20;0.20;;;;;;;7.90;100.00;95368.91;4948151;28;20047;-73
2022/12/22 09:47:38;;;;;;;0.20;0.20;;;;;;;7.89;100.00;95364.66;4948687;28;20043;-73
2022/12/22 09:50:25;;;;;;;0.10;0.10;;;;;;;7.96;100.00;95365.22;4947621;28;20074;-75
2022/12/22 09:53:20;;;;;;;0.10;0.10;;;;;;;7.97;100.00;95377.47;4949163;28;20047;-75
2022/12/22 09:56:12;;;;;;;0.17;0.17;;;;;;;7.86;100.00;95381.16;4942614;28;20030;-73
2022/12/22 09:58:59;;;;;;;0.20;0.20;;;;;;;7.86;100.00;95390.97;4960764;28;20121;-74
2022/12/22 10:01:50;;;;;;;0.20;0.20;;;;;;;7.92;100.00;95400.59;4946753;28;20047;-71
2022/12/22 10:04:56;;;;;;;;;;;;;;;8.02;100.00;95412.16;4948943;28;20519;-72
2022/12/22 10:07:43;;;;;;;0.10;0.10;;;;;;;7.98;100.00;95416.38;4945299;28;20305;-73
2022/12/22 10:10:30;;;;;;;0.10;0.10;;;;;;;7.93;100.00;95419.00;4949476;28;20479;-73
2022/12/22 10:13:17;;;;;;;0.10;0.10;;;;;;;7.92;100.00;95425.38;4950000;28;20050;-74
2022/12/22 10:16:22;;;;;;;0.10;0.10;;;;;;;7.82;100.00;95420.00;4948855;28;20040;-73
2022/12/22 10:19:11;;;;;;;0.15;0.15;;;;;;;7.90;100.00;95440.03;4949303;28;20097;-74
2022/12/22 10:22:24;;;;;;;0.10;0.10;;;;;;;7.87;100.00;95436.03;4947582;28;20376;-72
2022/12/22 10:25:30;;;;;;;0.10;0.10;;;;;;;7.83;100.00;95445.56;4948008;28;20188;-74
2022/12/22 10:28:21;;;;;;;0.10;0.10;;;;;;;7.80;100.00;95451.41;4949986;28;20035;-74
2022/12/22 10:31:13;;;;;;;0.15;0.15;;;;;;;7.91;100.00;95453.09;4954435;28;20042;-74
2022/12/22 10:34:16;;;;;;;0.20;0.20;;;;;;;7.84;100.00;95463.16;4967146;28;20039;-73
2022/12/22 10:37:04;;;;;;;0.10;0.10;;;;;;;7.77;100.00;95468.69;4967099;28;20280;-73
2022/12/22 10:39:50;;;;;;;0.20;0.20;;;;;;;7.77;100.00;95462.56;4968136;28;20323;-74
2022/12/22 10:42:36;;;;;;;0.20;0.20;;;;;;;7.72;100.00;95465.19;4966598;28;20120;-72
2022/12/22 10:45:26;;;;;;;0.10;0.10;;;;;;;7.76;100.00;95466.28;4969624;28;20046;-75
2022/12/22 10:48:12;;;;;;;0.10;0.10;;;;;;;7.83;100.00;95475.66;4969515;28;20128;-74
2022/12/22 10:51:01;;;;;;;0.20;0.20;;;;;;;7.78;100.00;95480.13;4965440;28;20038;-75
2022/12/22 10:53:52;;;;;;;0.10;0.10;;;;;;;7.76;100.00;95474.28;4967627;28;20054;-75
2022/12/22 10:56:38;;;;;;;0.10;0.10;;;;;;;7.71;100.00;95475.06;4968972;28;20046;-72
2022/12/22 10:59:24;;;;;;;0.15;0.15;;;;;;;7.78;100.00;95480.13;4969506;28;20042;-73
2022/12/22 11:02:19;;;;;;;0.10;0.10;;;;;;;7.77;100.00;95482.00;4603929;28;10000616;-72
2022/12/22 11:05:11;;;;;;;0.10;0.10;;;;;;;7.70;100.00;95483.28;4946301;28;20142;-76
2022/12/22 11:08:11;;;;;;;0.10;0.10;;;;;;;7.73;100.00;95498.75;4945086;28;20105;-74
2022/12/22 11:11:05;;;;;;;0.10;0.10;;;;;;;7.71;100.00;95503.53;4946295;28;20071;-75
2022/12/22 11:14:15;;;;;;;0.10;0.10;;;;;;;7.70;100.00;95509.91;4944668;28;20035;-75
2022/12/22 11:17:49;;;;;;;0.10;0.10;;;;;;;7.66;100.00;95519.47;4945782;28;20087;-73
2022/12/22 11:20:44;;;;;;;0.10;0.10;;;;;;;7.61;100.00;95530.06;4948252;28;20151;-74
2022/12/22 11:24:12;;;;;;;0.10;0.10;;;;;;;7.63;100.00;95517.31;4946677;28;20834;-75
2022/12/22 11:27:04;;;;;;;0.15;0.15;;;;;;;7.79;100.00;95551.03;4945433;28;20102;-75
2022/12/22 11:30:02;;;;;;;0.13;0.13;;;;;;;7.74;100.00;95540.31;4947884;28;20051;-75
2022/12/22 11:33:19;;;;;;;0.10;0.10;;;;;;;7.68;100.00;95549.31;4964355;28;20128;-75
2022/12/22 11:36:27;;;;;;;0.10;0.10;;;;;;;7.64;100.00;95553.53;4961900;28;20043;-75
2022/12/22 11:39:18;;;;;;;0.20;0.20;;;;;;;7.72;100.00;95555.75;4965757;28;20049;-74
2022/12/22 11:42:20;;;;;;;0.20;0.20;;;;;;;7.75;100.00;95556.03;4967273;28;20041;-74
2022/12/22 11:45:50;;;;;;;0.20;0.20;;;;;;;7.79;100.00;95564.34;4964748;28;20042;-75
2022/12/22 11:49:02;;;;;;;0.10;0.10;;;;;;;7.76;100.00;95573.59;4966434;28;20042;-75
2022/12/22 11:52:12;;;;;;;0.10;0.10;;;;;;;7.71;100.00;95572.78;4953851;28;20039;-75
2022/12/22 11:55:01;;;;;;;0.10;0.10;;;;;;;7.73;100.00;95574.13;4964745;28;20034;-75
2022/12/22 11:58:24;;;;;;;0.13;0.13;;;;;;;7.61;100.00;95575.31;4966502;28;20069;-73
2022/12/22 12:01:34;;;;;;;0.10;0.10;;;;;;;7.68;100.00;95589.25;4957398;28;20061;-75
2022/12/22 12:04:56;;;;;;;0.10;0.10;;;;;;;7.74;100.00;95591.72;4946661;28;20034;-73
2022/12/22 12:07:47;;;;;;;0.10;0.10;;;;;;;7.61;100.00;95592.09;4948158;28;20034;-74
2022/12/22 12:10:46;;;;;;;0.20;0.20;;;;;;;7.58;100.00;95597.13;4948329;28;20045;-73
2022/12/22 12:14:01;;;;;;;0.20;0.20;;;;;;;7.54;100.00;95610.13;4948125;28;20031;-73
2022/12/22 12:16:52;;;;;;;0.20;0.20;;;;;;;7.73;100.00;95602.63;4947113;28;20034;-72
2022/12/22 12:19:55;;;;;;;0.20;0.20;;;;;;;7.81;100.00;95608.28;4945981;28;20051;-72
2022/12/22 12:22:44;;;;;;;0.13;0.13;;;;;;;7.76;100.00;95612.75;4946851;28;20054;-73
2022/12/22 12:25:39;;;;;;;0.10;0.10;;;;;;;7.94;100.00;95609.75;4946452;28;20031;-75
2022/12/22 12:28:47;;;;;;;0.20;0.20;;;;;;;8.17;100.00;95615.81;4946916;28;20035;-74
2022/12/22 12:31:39;;;;;;;0.15;0.15;;;;;;;9.02;100.00;95617.50;4946392;28;20137;-72
2022/12/22 12:34:28;;;;;;;0.10;0.10;;;;;;;8.81;100.00;95621.13;4946996;28;20070;-74
2022/12/22 12:37:21;;;;;;;0.17;0.17;;;;;;;8.37;100.00;95624.00;4946231;28;20394;-76
2022/12/22 12:40:45;;;;;;;0.20;0.20;;;;;;;8.29;100.00;95632.44;4946284;28;20050;-72
2022/12/22 12:43:32;;;;;;;0.10;0.10;;;;;;;7.97;100.00;95632.41;4604403;28;9999788;-74
2022/12/22 12:46:49;;;;;;;0.17;0.17;;;;;;;7.81;100.00;95639.44;4946106;28;20641;-75
2022/12/22 12:49:37;;;;;;;0.10;0.10;;;;;;;7.74;100.00;95644.97;4959046;28;20042;-73
2022/12/22 12:52:38;;;;;;;0.20;0.20;;;;;;;7.64;100.00;95644.88;4958059;28;20042;-75
2022/12/22 12:55:37;;;;;;;0.10;0.10;;;;;;;7.67;100.00;95659.53;4958816;28;20161;-74
2022/12/22 12:58:38;;;;;;;0.10;0.10;;;;;;;8.00;100.00;95651.34;4947549;28;20476;-75
2022/12/22 13:01:27;;;;;;;0.15;0.15;;;;;;;8.35;100.00;95652.78;4960160;28;20047;-75
2022/12/22 13:04:51;;;;;;;0.20;0.20;;;;;;;8.43;100.00;95655.00;4945304;28;20391;-73
2022/12/22 13:08:05;;;;;;;0.20;0.20;;;;;;;8.14;100.00;95656.28;4944804;28;20058;-74
2022/12/22 13:10:54;;;;;;;0.10;0.10;;;;;;;7.95;100.00;95666.50;4944822;28;20039;-75
2022/12/22 13:13:40;;;;;;;0.10;0.10;;;;;;;7.73;100.00;95663.88;4945477;28;20047;-74
2022/12/22 13:16:29;;;;;;;0.20;0.20;;;;;;;7.72;100.00;95656.94;4946694;28;20226;-74
2022/12/22 13:19:22;;;;;;;0.13;0.13;;;;;;;7.78;100.00;95663.91;4945932;28;20272;-73
2022/12/22 13:22:08;;;;;;;0.10;0.10;;;;;;;7.76;100.00;95679.34;4944611;28;20046;-74
2022/12/22 13:24:55;;;;;;;0.13;0.13;;;;;;;7.86;100.00;95683.97;4943687;28;20352;-74
2022/12/22 13:27:42;;;;;;;0.10;0.10;;;;;;;7.85;100.00;95685.81;4945701;28;20039;-75
2022/12/22 13:30:29;;;;;;;0.20;0.20;;;;;;;7.85;100.00;95693.03;4948420;28;20098;-76
2022/12/22 13:33:19;;;;;;;0.20;0.20;;;;;;;7.80;100.00;95697.25;4965825;28;20516;-73
2022/12/22 13:36:07;;;;;;;0.20;0.20;;;;;;;7.66;100.00;95696.00;4960912;28;20034;-74
2022/12/22 13:39:01;;;;;;;0.20;0.20;;;;;;;7.69;100.00;95694.69;4976756;28;20469;-74
2022/12/22 13:41:49;;;;;;;0.10;0.10;;;;;;;7.62;100.00;95696.75;4965067;28;20283;-75
2022/12/22 13:44:37;;;;;;;0.10;0.10;;;;;;;7.54;100.00;95688.13;4979733;28;20120;-75
2022/12/22 13:47:24;;;;;;;0.30;0.30;;;;;;;7.47;100.00;95692.03;4966329;28;20124;-73
2022/12/22 13:50:27;;;;;;;0.17;0.17;;;;;;;7.50;100.00;95692.34;4964775;28;20043;-71
2022/12/22 13:53:18;;;;;;;0.20;0.20;;;;;;;7.47;100.00;95697.34;4964275;28;20719;-70
2022/12/22 13:56:07;;;;;;;0.10;0.10;;;;;;;7.50;100.00;95680.91;4978807;28;20131;-71
2022/12/22 13:59:00;;;;;;;0.20;0.20;;;;;;;7.57;100.00;95686.84;4967010;28;20104;-74
2022/12/22 14:01:51;;;;;;;0.13;0.13;;;;;;;7.50;100.00;95684.38;4968341;28;20078;-73
2022/12/22 14:04:40;;;;;;;0.20;0.20;;;;;;;7.52;100.00;95689.44;4970292;28;20125;-73
2022/12/22 14:07:26;;;;;;;0.10;0.10;;;;;;;7.45;100.00;95699.47;4954627;28;20483;-70
2022/12/22 14:10:11;;;;;;;0.10;0.10;;;;;;;7.47;100.00;95694.69;4969493;28;20431;-72
2022/12/22 14:13:00;;;;;;;0.10;0.10;;;;;;;7.51;100.00;95699.28;4953085;28;20482;-74
2022/12/22 14:15:46;;;;;;;0.10;0.10;;;;;;;7.49;100.00;95701.41;4968366;28;20243;-73
2022/12/22 14:18:32;;;;;;;0.20;0.20;;;;;;;7.42;100.00;95707.97;4968030;28;20283;-73
2022/12/22 14:21:18;;;;;;;0.20;0.20;;;;;;;7.37;100.00;95703.34;4968087;28;20039;-74
2022/12/22 14:24:04;;;;;;;0.15;0.15;;;;;;;7.36;100.00;95711.59;4953269;28;20494;-72
2022/12/22 14:26:52;;;;;;;0.10;0.10;;;;;;;7.36;100.00;95706.28;4954952;28;20054;-74
2022/12/22 14:29:38;;;;;;;0.20;0.20;;;;;;;7.29;100.00;95706.44;4969316;28;20073;-73
2022/12/22 14:32:39;;;;;;;0.20;0.20;;;;;;;7.33;100.00;95706.78;4953903;28;20271;-72
2022/12/22 14:35:29;;;;;;;0.13;0.13;;;;;;;7.30;100.00;95708.06;4950063;28;20038;-73
2022/12/22 14:38:23;;;;;;;0.10;0.10;;;;;;;7.32;100.00;95719.28;4946869;28;20217;-71
2022/12/22 14:41:42;;;;;;;0.10;0.10;;;;;;;7.30;100.00;95721.34;4950825;28;20593;-71
2022/12/22 14:44:33;;;;;;;0.10;0.10;;;;;;;7.28;100.00;95728.78;4935023;28;20490;-71
2022/12/22 14:47:24;;;;;;;0.10;0.10;;;;;;;7.30;100.00;95740.00;4947802;28;20046;-74
2022/12/22 14:50:17;;;;;;;0.10;0.10;;;;;;;7.30;100.00;95739.19;4949618;28;20409;-73
2022/12/22 14:53:04;;;;;;;0.10;0.10;;;;;;;7.27;100.00;95732.50;4945609;28;20566;-70
2022/12/22 14:55:51;;;;;;;0.10;0.10;;;;;;;7.25;100.00;95737.28;4950307;28;20752;-73
2022/12/22 14:58:40;;;;;;;0.20;0.20;;;;;;;7.31;100.00;95736.28;4949416;28;20109;-73
2022/12/22 15:01:27;;;;;;;0.20;0.20;;;;;;;7.36;100.00;95738.22;4959864;28;20104;-71
2022/12/22 15:04:18;;;;;;;0.20;0.20;;;;;;;7.32;100.00;95737.09;4967372;28;20089;-73
2022/12/22 15:07:14;;;;;;;0.20;0.20;;;;;;;7.35;100.00;95731.28;4966488;28;20042;-73
2022/12/22 15:10:00;;;;;;;0.20;0.20;;;;;;;7.39;100.00;95730.56;4967452;28;20718;-73
2022/12/22 15:12:48;;;;;;;0.10;0.10;;;;;;;7.38;100.00;95722.78;4969870;28;20105;-71
2022/12/22 15:15:34;;;;;;;0.10;0.10;;;;;;;7.28;100.00;95722.66;4968203;28;20046;-72
2022/12/22 15:18:24;;;;;;;0.20;0.20;;;;;;;7.08;100.00;95716.03;4965826;28;20479;-74
2022/12/22 15:21:13;;;;;;;0.10;0.10;;;;;;;6.90;100.00;95710.94;4967186;28;20447;-72
2022/12/22 15:23:59;;;;;;;0.20;0.20;;;;;;;6.80;100.00;95714.25;4965667;28;20348;-72
2022/12/22 15:26:46;;;;;;;0.20;0.20;;;;;;;6.79;100.00;95706.53;4966025;28;20050;-73
2022/12/22 15:29:32;;;;;;;0.13;0.13;;;;;;;6.69;100.00;95720.44;4967588;28;20057;-73
2022/12/22 15:32:18;;;;;;;0.10;0.10;;;;;;;6.73;100.00;95705.63;4948517;28;20446;-71
2022/12/22 15:35:16;;;;;;;0.10;0.10;;;;;;;6.77;100.00;95708.59;4947009;28;20043;-73
2022/12/22 15:38:02;;;;;;;0.10;0.10;;;;;;;6.74;100.00;95714.41;4946008;28;20039;-74
2022/12/22 15:40:48;;;;;;;0.20;0.20;;;;;;;6.73;100.00;95700.31;4948376;28;20105;-72
2022/12/22 15:43:34;;;;;;;0.20;0.20;;;;;;;6.82;100.00;95700.72;4947016;28;20043;-73
2022/12/22 15:46:20;;;;;;;0.20;0.20;;;;;;;6.84;100.00;95702.06;4945027;28;20629;-73
2022/12/22 15:49:17;;;;;;;0.20;0.20;;;;;;;6.75;100.00;95703.53;4944491;28;20187;-70
2022/12/22 15:52:05;;;;;;;0.10;0.10;;;;;;;6.70;100.00;95704.28;4947064;28;20043;-71
2022/12/22 15:54:51;;;;;;;0.20;0.20;;;;;;;6.60;100.00;95696.13;4946440;28;20086;-74
2022/12/22 15:57:37;;;;;;;0.20;0.20;;;;;;;6.54;100.00;95698.97;4947720;28;20177;-74
2022/12/22 16:00:23;;;;;;;0.20;0.20;;;;;;;6.64;100.00;95699.13;4605930;28;9999713;-74
2022/12/22 16:03:10;;;;;;;0.20;0.20;;;;;;;6.64;100.00;95696.47;4964547;28;20322;-75
2022/12/22 16:05:56;;;;;;;0.20;0.20;;;;;;;6.65;100.00;95695.41;4944142;28;20050;-74
2022/12/22 16:08:48;;;;;;;0.20;0.20;;;;;;;6.66;100.00;95705.00;4964690;28;20108;-72
2022/12/22 16:11:34;;;;;;;0.20;0.20;;;;;;;6.66;100.00;95686.38;4965461;28;20410;-71
2022/12/22 16:14:21;;;;;;;0.20;0.20;;;;;;;6.70;100.00;95693.63;4960668;28;20034;-74
2022/12/22 16:17:16;;;;;;;0.20;0.20;;;;;;;6.72;100.00;95697.91;4963079;28;20052;-74
2022/12/22 16:20:02;;;;;;;0.10;0.10;;;;;;;6.72;100.00;95679.28;4965368;28;20042;-72
2022/12/22 16:22:50;;;;;;;0.20;0.20;;;;;;;6.77;100.00;95688.16;4963757;28;20436;-72
2022/12/22 16:25:40;;;;;;;0.10;0.10;;;;;;;6.81;100.00;95685.81;4962659;28;20039;-75
2022/12/22 16:28:26;;;;;;;0.10;0.10;;;;;;;6.75;100.00;95681.44;4965083;28;20042;-72
2022/12/22 16:31:21;;;;;;;0.10;0.10;;;;;;;6.80;100.00;95684.19;4955810;28;20047;-74
2022/12/22 16:34:10;;;;;;;0.20;0.20;;;;;;;6.77;100.00;95688.16;4942642;28;20039;-76
2022/12/22 16:36:57;;;;;;;0.15;0.15;;;;;;;6.64;100.00;95680.50;4943457;28;20035;-75
2022/12/22 16:39:43;;;;;;;0.10;0.10;;;;;;;6.65;100.00;95688.22;4946157;28;20073;-71
2022/12/22 16:42:29;;;;;;;0.10;0.10;;;;;;;6.66;100.00;95681.88;4943481;28;20421;-70
2022/12/22 16:45:21;;;;;;;0.13;0.13;;;;;;;6.62;100.00;95674.63;4942666;28;20575;-75
2022/12/22 16:48:13;;;;;;;0.10;0.10;;;;;;;6.58;100.00;95681.47;4944798;28;20800;-72
2022/12/22 16:51:00;;;;;;;0.20;0.20;;;;;;;6.53;100.00;95676.06;4943952;28;20050;-72
2022/12/22 16:53:48;;;;;;;0.10;0.10;;;;;;;6.52;100.00;95679.75;4946126;28;20049;-74
2022/12/22 16:56:34;;;;;;;0.10;0.10;;;;;;;6.49;100.00;95673.09;4944630;28;21177;-73
2022/12/22 16:59:20;;;;;;;0.20;0.20;;;;;;;6.53;100.00;95670.75;4956626;28;20042;-74